sensor_id;sensor_type;location;lat;lon;timestamp;pressure;altitude;pressure_sealevel;temperature;humidity
71697;BME280;68167;59.120;37.898;2023-10-31T00:02:11;99102.00;;;-0.34;78.26
71697;BME280;68167;59.120;37.898;2023-10-31T00:04:37;99104.22;;;-0.24;78.56
71697;BME280;68167;59.120;37.898;2023-10-31T00:07:04;99126.53;;;-0.15;78.79
71697;BME280;68167;59.120;37.898;2023-10-31T00:09:30;99099.19;;;-0.19;78.51
71697;BME280;68167;59.120;37.898;2023-10-31T00:11:57;99029.47;;;-0.65;78.80
71697;BME280;68167;59.120;37.898;2023-10-31T00:14:24;99075.66;;;-0.32;78.95
71697;BME280;68167;59.120;37.898;2023-10-31T00:16:51;99066.41;;;-0.35;78.63
71697;BME280;68167;59.120;37.898;2023-10-31T00:19:18;99084.50;;;-0.27;78.65
71697;BME280;68167;59.120;37.898;2023-10-31T00:21:45;99114.06;;;-0.13;78.48
71697;BME280;68167;59.120;37.898;2023-10-31T00:24:11;99129.94;;;-0.15;77.90
71697;BME280;68167;59.120;37.898;2023-10-31T00:26:38;99110.03;;;-0.29;78.04
71697;BME280;68167;59.120;37.898;2023-10-31T00:29:04;99160.53;;;-0.09;78.27
71697;BME280;68167;59.120;37.898;2023-10-31T00:31:30;99138.41;;;-0.13;78.21
71697;BME280;68167;59.120;37.898;2023-10-31T00:33:56;99156.91;;;-0.08;78.48
71697;BME280;68167;59.120;37.898;2023-10-31T00:36:23;99151.66;;;-0.08;78.70
71697;BME280;68167;59.120;37.898;2023-10-31T00:38:49;99140.81;;;-0.11;79.19
71697;BME280;68167;59.120;37.898;2023-10-31T00:41:16;99159.28;;;0.00;79.26
71697;BME280;68167;59.120;37.898;2023-10-31T00:43:42;99117.28;;;-0.24;78.94
71697;BME280;68167;59.120;37.898;2023-10-31T00:46:08;99110.06;;;-0.36;78.90
71697;BME280;68167;59.120;37.898;2023-10-31T00:48:34;99126.53;;;-0.28;78.70
71697;BME280;68167;59.120;37.898;2023-10-31T00:51:03;99128.53;;;-0.17;79.17
71697;BME280;68167;59.120;37.898;2023-10-31T00:53:31;99172.94;;;0.09;79.14
71697;BME280;68167;59.120;37.898;2023-10-31T00:55:57;99165.91;;;0.10;78.88
71697;BME280;68167;59.120;37.898;2023-10-31T00:58:24;99170.72;;;0.06;79.37
71697;BME280;68167;59.120;37.898;2023-10-31T01:00:51;99190.84;;;0.19;79.26
71697;BME280;68167;59.120;37.898;2023-10-31T01:03:19;99201.28;;;0.25;79.15
71697;BME280;68167;59.120;37.898;2023-10-31T01:05:45;99028.09;;;-0.87;79.51
71697;BME280;68167;59.120;37.898;2023-10-31T01:08:12;99194.47;;;0.18;79.25
71697;BME280;68167;59.120;37.898;2023-10-31T01:10:38;99202.91;;;0.20;78.76
71697;BME280;68167;59.120;37.898;2023-10-31T01:13:04;99168.34;;;-0.02;78.85
71697;BME280;68167;59.120;37.898;2023-10-31T01:15:31;99180.19;;;0.00;79.05
71697;BME280;68167;59.120;37.898;2023-10-31T01:17:58;99216.19;;;0.25;79.54
71697;BME280;68167;59.120;37.898;2023-10-31T01:20:25;99222.03;;;0.20;79.39
71697;BME280;68167;59.120;37.898;2023-10-31T01:22:51;99212.19;;;0.16;79.67
71697;BME280;68167;59.120;37.898;2023-10-31T01:25:18;99233.28;;;0.34;79.33
71697;BME280;68167;59.120;37.898;2023-10-31T01:27:45;99196.91;;;0.06;79.38
71697;BME280;68167;59.120;37.898;2023-10-31T01:30:11;99261.47;;;0.39;79.40
71697;BME280;68167;59.120;37.898;2023-10-31T01:32:38;99253.81;;;0.44;79.97
71697;BME280;68167;59.120;37.898;2023-10-31T01:35:04;99249.38;;;0.44;79.72
71697;BME280;68167;59.120;37.898;2023-10-31T01:37:31;99223.66;;;0.21;79.51
71697;BME280;68167;59.120;37.898;2023-10-31T01:39:57;99212.56;;;0.19;79.42
71697;BME280;68167;59.120;37.898;2023-10-31T01:42:23;99267.09;;;0.49;79.44
71697;BME280;68167;59.120;37.898;2023-10-31T01:44:50;99251.63;;;0.34;79.17
71697;BME280;68167;59.120;37.898;2023-10-31T01:47:16;99252.22;;;0.36;78.86
71697;BME280;68167;59.120;37.898;2023-10-31T01:49:42;99254.25;;;0.34;79.23
71697;BME280;68167;59.120;37.898;2023-10-31T01:52:10;99242.78;;;0.22;79.72
71697;BME280;68167;59.120;37.898;2023-10-31T01:54:37;99225.06;;;0.11;79.27
71697;BME280;68167;59.120;37.898;2023-10-31T01:57:04;99260.28;;;0.35;79.54
71697;BME280;68167;59.120;37.898;2023-10-31T01:59:31;99232.72;;;0.19;79.70
71697;BME280;68167;59.120;37.898;2023-10-31T02:01:58;99293.88;;;0.51;79.34
71697;BME280;68167;59.120;37.898;2023-10-31T02:04:26;99283.63;;;0.43;79.45
71697;BME280;68167;59.120;37.898;2023-10-31T02:06:53;99285.84;;;0.39;79.74
71697;BME280;68167;59.120;37.898;2023-10-31T02:09:20;99268.34;;;0.26;79.52
71697;BME280;68167;59.120;37.898;2023-10-31T02:11:50;99312.22;;;0.51;79.58
71697;BME280;68167;59.120;37.898;2023-10-31T02:14:16;99223.91;;;0.00;79.38
71697;BME280;68167;59.120;37.898;2023-10-31T02:16:43;99276.78;;;0.35;79.54
71697;BME280;68167;59.120;37.898;2023-10-31T02:19:10;99261.28;;;0.20;79.31
71697;BME280;68167;59.120;37.898;2023-10-31T02:21:40;99288.88;;;0.36;79.18
71697;BME280;68167;59.120;37.898;2023-10-31T02:24:07;99288.88;;;0.29;79.53
71697;BME280;68167;59.120;37.898;2023-10-31T02:26:34;99305.56;;;0.28;79.02
71697;BME280;68167;59.120;37.898;2023-10-31T02:29:02;99334.38;;;0.42;79.43
71697;BME280;68167;59.120;37.898;2023-10-31T02:31:29;99334.16;;;0.43;79.72
71697;BME280;68167;59.120;37.898;2023-10-31T02:33:55;99328.53;;;0.46;79.84
71697;BME280;68167;59.120;37.898;2023-10-31T02:36:22;99277.19;;;0.19;79.36
71697;BME280;68167;59.120;37.898;2023-10-31T02:38:50;99323.69;;;0.43;79.53
71697;BME280;68167;59.120;37.898;2023-10-31T02:41:16;99343.03;;;0.49;78.99
71697;BME280;68167;59.120;37.898;2023-10-31T02:43:42;99300.75;;;0.19;79.12
71697;BME280;68167;59.120;37.898;2023-10-31T02:46:09;99349.88;;;0.43;79.49
71697;BME280;68167;59.120;37.898;2023-10-31T02:48:38;99366.19;;;0.45;79.99
71697;BME280;68167;59.120;37.898;2023-10-31T02:51:07;99362.75;;;0.45;79.53
71697;BME280;68167;59.120;37.898;2023-10-31T02:53:34;99343.81;;;0.29;79.50
71697;BME280;68167;59.120;37.898;2023-10-31T02:56:03;99334.34;;;0.22;79.25
71697;BME280;68167;59.120;37.898;2023-10-31T02:58:30;99288.28;;;-0.06;79.62
71697;BME280;68167;59.120;37.898;2023-10-31T03:00:56;99320.84;;;0.05;79.26
71697;BME280;68167;59.120;37.898;2023-10-31T03:03:22;99322.47;;;0.13;78.77
71697;BME280;68167;59.120;37.898;2023-10-31T03:05:49;99370.41;;;0.40;79.06
71697;BME280;68167;59.120;37.898;2023-10-31T03:08:16;99328.31;;;0.08;78.65
71697;BME280;68167;59.120;37.898;2023-10-31T03:10:48;99394.16;;;0.31;78.44
71697;BME280;68167;59.120;37.898;2023-10-31T03:13:18;99392.53;;;0.17;78.31
71697;BME280;68167;59.120;37.898;2023-10-31T03:15:45;99391.09;;;0.08;78.01
71697;BME280;68167;59.120;37.898;2023-10-31T03:18:12;99344.56;;;-0.23;78.60
71697;BME280;68167;59.120;37.898;2023-10-31T03:20:43;99392.91;;;0.01;78.63
71697;BME280;68167;59.120;37.898;2023-10-31T03:23:09;99399.94;;;0.00;78.94
71697;BME280;68167;59.120;37.898;2023-10-31T03:25:35;99411.03;;;-0.04;79.15
71697;BME280;68167;59.120;37.898;2023-10-31T03:28:02;99399.94;;;-0.13;78.85
71697;BME280;68167;59.120;37.898;2023-10-31T03:30:28;99362.63;;;-0.41;79.09
71697;BME280;68167;59.120;37.898;2023-10-31T03:32:54;99425.50;;;-0.08;79.57
71697;BME280;68167;59.120;37.898;2023-10-31T03:35:21;99428.88;;;-0.21;79.64
71697;BME280;68167;59.120;37.898;2023-10-31T03:37:47;99461.13;;;-0.01;79.43
71697;BME280;68167;59.120;37.898;2023-10-31T03:40:13;99432.56;;;-0.02;79.01
71697;BME280;68167;59.120;37.898;2023-10-31T03:42:40;99411.59;;;-0.15;79.51
71697;BME280;68167;59.120;37.898;2023-10-31T03:45:07;99430.34;;;-0.05;79.88
71697;BME280;68167;59.120;37.898;2023-10-31T03:47:33;99421.03;;;-0.14;79.57
71697;BME280;68167;59.120;37.898;2023-10-31T03:49:59;99391.59;;;-0.36;79.51
71697;BME280;68167;59.120;37.898;2023-10-31T03:52:26;99443.59;;;-0.13;79.47
71697;BME280;68167;59.120;37.898;2023-10-31T03:54:52;99366.56;;;-0.65;79.11
71697;BME280;68167;59.120;37.898;2023-10-31T03:57:18;99438.09;;;-0.25;79.25
71697;BME280;68167;59.120;37.898;2023-10-31T03:59:45;99434.06;;;-0.27;79.27
71697;BME280;68167;59.120;37.898;2023-10-31T04:02:11;99419.56;;;-0.30;79.57
71697;BME280;68167;59.120;37.898;2023-10-31T04:04:37;99447.03;;;-0.06;79.89
71697;BME280;68167;59.120;37.898;2023-10-31T04:07:04;99407.69;;;-0.32;79.46
71697;BME280;68167;59.120;37.898;2023-10-31T04:09:30;99458.50;;;-0.07;79.20
71697;BME280;68167;59.120;37.898;2023-10-31T04:11:56;99455.84;;;-0.14;79.39
71697;BME280;68167;59.120;37.898;2023-10-31T04:14:23;99430.81;;;-0.36;79.38
71697;BME280;68167;59.120;37.898;2023-10-31T04:16:49;99440.88;;;-0.33;79.15
71697;BME280;68167;59.120;37.898;2023-10-31T04:19:15;99453.81;;;-0.18;78.90
71697;BME280;68167;59.120;37.898;2023-10-31T04:21:42;99413.25;;;-0.49;79.13
71697;BME280;68167;59.120;37.898;2023-10-31T04:24:08;99471.91;;;-0.23;78.86
71697;BME280;68167;59.120;37.898;2023-10-31T04:26:34;99468.06;;;-0.27;78.88
71697;BME280;68167;59.120;37.898;2023-10-31T04:29:01;99485.56;;;-0.28;78.66
71697;BME280;68167;59.120;37.898;2023-10-31T04:31:27;99447.59;;;-0.58;78.29
71697;BME280;68167;59.120;37.898;2023-10-31T04:33:54;99482.09;;;-0.35;78.64
71697;BME280;68167;59.120;37.898;2023-10-31T04:36:20;99408.84;;;-0.89;78.45
71697;BME280;68167;59.120;37.898;2023-10-31T04:38:46;99460.66;;;-0.65;78.39
71697;BME280;68167;59.120;37.898;2023-10-31T04:41:12;99512.41;;;-0.47;78.82
71697;BME280;68167;59.120;37.898;2023-10-31T04:43:39;99452.47;;;-0.83;79.21
71697;BME280;68167;59.120;37.898;2023-10-31T04:46:07;99512.81;;;-0.44;79.14
71697;BME280;68167;59.120;37.898;2023-10-31T04:48:34;99490.78;;;-0.62;79.47
71697;BME280;68167;59.120;37.898;2023-10-31T04:51:00;99533.97;;;-0.39;79.29
71697;BME280;68167;59.120;37.898;2023-10-31T04:53:27;99439.13;;;-0.95;79.04
71697;BME280;68167;59.120;37.898;2023-10-31T04:55:53;99479.88;;;-0.73;79.21
71697;BME280;68167;59.120;37.898;2023-10-31T04:58:19;99492.59;;;-0.63;79.26
71697;BME280;68167;59.120;37.898;2023-10-31T05:00:46;99487.16;;;-0.68;79.39
71697;BME280;68167;59.120;37.898;2023-10-31T05:03:13;99521.22;;;-0.48;79.35
71697;BME280;68167;59.120;37.898;2023-10-31T05:05:39;99432.06;;;-1.01;79.11
71697;BME280;68167;59.120;37.898;2023-10-31T05:08:05;99487.97;;;-0.61;79.34
71697;BME280;68167;59.120;37.898;2023-10-31T05:10:32;99534.16;;;-0.40;79.85
71697;BME280;68167;59.120;37.898;2023-10-31T05:12:58;99551.69;;;-0.34;79.85
71697;BME280;68167;59.120;37.898;2023-10-31T05:15:24;99500.84;;;-0.66;78.96
71697;BME280;68167;59.120;37.898;2023-10-31T05:17:51;99495.19;;;-0.70;79.37
71697;BME280;68167;59.120;37.898;2023-10-31T05:20:17;99526.19;;;-0.60;79.06
71697;BME280;68167;59.120;37.898;2023-10-31T05:22:43;99492.09;;;-0.80;79.46
71697;BME280;68167;59.120;37.898;2023-10-31T05:25:10;99500.38;;;-0.76;79.06
71697;BME280;68167;59.120;37.898;2023-10-31T05:27:36;99556.66;;;-0.46;79.36
71697;BME280;68167;59.120;37.898;2023-10-31T05:30:03;99507.63;;;-0.72;79.66
71697;BME280;68167;59.120;37.898;2023-10-31T05:32:31;99516.47;;;-0.73;78.92
71697;BME280;68167;59.120;37.898;2023-10-31T05:34:58;99573.19;;;-0.39;78.89
71697;BME280;68167;59.120;37.898;2023-10-31T05:37:24;99525.75;;;-0.70;79.17
71697;BME280;68167;59.120;37.898;2023-10-31T05:39:50;99600.56;;;-0.35;79.27
71697;BME280;68167;59.120;37.898;2023-10-31T05:42:17;99548.69;;;-0.65;79.67
71697;BME280;68167;59.120;37.898;2023-10-31T05:44:45;99492.38;;;-0.96;79.34
71697;BME280;68167;59.120;37.898;2023-10-31T05:47:11;99593.09;;;-0.38;79.43
71697;BME280;68167;59.120;37.898;2023-10-31T05:49:37;99577.13;;;-0.49;79.76
71697;BME280;68167;59.120;37.898;2023-10-31T05:52:04;99554.09;;;-0.67;79.33
71697;BME280;68167;59.120;37.898;2023-10-31T05:54:30;99576.09;;;-0.55;79.35
71697;BME280;68167;59.120;37.898;2023-10-31T05:56:56;99622.16;;;-0.26;79.13
71697;BME280;68167;59.120;37.898;2023-10-31T05:59:23;99624.97;;;-0.27;79.35
71697;BME280;68167;59.120;37.898;2023-10-31T06:01:49;99642.06;;;-0.25;78.91
71697;BME280;68167;59.120;37.898;2023-10-31T06:04:16;99651.34;;;-0.22;79.26
71697;BME280;68167;59.120;37.898;2023-10-31T06:06:42;99649.50;;;-0.28;79.15
71697;BME280;68167;59.120;37.898;2023-10-31T06:09:09;99680.72;;;-0.20;79.15
71697;BME280;68167;59.120;37.898;2023-10-31T06:11:36;99684.59;;;-0.16;79.30
71697;BME280;68167;59.120;37.898;2023-10-31T06:14:02;99697.97;;;-0.05;80.07
71697;BME280;68167;59.120;37.898;2023-10-31T06:16:29;99683.88;;;-0.04;79.87
71697;BME280;68167;59.120;37.898;2023-10-31T06:18:56;99622.34;;;-0.27;79.98
71697;BME280;68167;59.120;37.898;2023-10-31T06:21:22;99675.94;;;0.18;80.38
71697;BME280;68167;59.120;37.898;2023-10-31T06:23:48;99670.88;;;0.10;80.43
71697;BME280;68167;59.120;37.898;2023-10-31T06:26:15;99717.81;;;0.46;79.86
71697;BME280;68167;59.120;37.898;2023-10-31T06:28:41;99699.09;;;0.49;80.08
71697;BME280;68167;59.120;37.898;2023-10-31T06:31:07;99592.13;;;-0.02;79.62
71697;BME280;68167;59.120;37.898;2023-10-31T06:33:34;99679.22;;;0.61;80.13
71697;BME280;68167;59.120;37.898;2023-10-31T06:36:01;99665.31;;;0.67;79.53
71697;BME280;68167;59.120;37.898;2023-10-31T06:38:27;99576.91;;;0.15;79.60
71697;BME280;68167;59.120;37.898;2023-10-31T06:40:54;99682.66;;;0.68;79.58
71697;BME280;68167;59.120;37.898;2023-10-31T06:43:23;99677.22;;;0.70;79.28
71697;BME280;68167;59.120;37.898;2023-10-31T06:45:49;99660.28;;;0.59;79.18
71697;BME280;68167;59.120;37.898;2023-10-31T06:48:15;99612.41;;;0.30;79.61
71697;BME280;68167;59.120;37.898;2023-10-31T06:50:41;99662.50;;;0.62;79.32
71697;BME280;68167;59.120;37.898;2023-10-31T06:53:08;99683.84;;;0.65;79.23
71697;BME280;68167;59.120;37.898;2023-10-31T06:55:34;99718.91;;;0.64;79.36
71697;BME280;68167;59.120;37.898;2023-10-31T06:58:00;99717.22;;;0.50;79.20
71697;BME280;68167;59.120;37.898;2023-10-31T07:00:27;99698.47;;;0.47;79.28
71697;BME280;68167;59.120;37.898;2023-10-31T07:02:53;99713.59;;;0.51;79.94
71697;BME280;68167;59.120;37.898;2023-10-31T07:05:20;99664.47;;;0.19;79.14
71697;BME280;68167;59.120;37.898;2023-10-31T07:07:47;99686.66;;;0.23;78.60
71697;BME280;68167;59.120;37.898;2023-10-31T07:10:13;99687.31;;;-0.03;78.83
71697;BME280;68167;59.120;37.898;2023-10-31T07:12:39;99696.16;;;0.03;79.34
71697;BME280;68167;59.120;37.898;2023-10-31T07:15:06;99659.81;;;-0.20;79.64
71697;BME280;68167;59.120;37.898;2023-10-31T07:17:33;99736.63;;;0.28;79.63
71697;BME280;68167;59.120;37.898;2023-10-31T07:19:59;99754.97;;;0.35;79.65
71697;BME280;68167;59.120;37.898;2023-10-31T07:22:26;99722.75;;;0.06;79.46
71697;BME280;68167;59.120;37.898;2023-10-31T07:24:52;99756.28;;;0.17;79.41
71697;BME280;68167;59.120;37.898;2023-10-31T07:27:18;99778.69;;;0.26;79.64
71697;BME280;68167;59.120;37.898;2023-10-31T07:29:45;99754.69;;;0.23;79.90
71697;BME280;68167;59.120;37.898;2023-10-31T07:32:12;99717.19;;;0.16;80.25
71697;BME280;68167;59.120;37.898;2023-10-31T07:34:41;99756.50;;;0.50;80.28
71697;BME280;68167;59.120;37.898;2023-10-31T07:37:08;99696.69;;;0.19;80.41
71697;BME280;68167;59.120;37.898;2023-10-31T07:39:34;99772.97;;;0.79;80.71
71697;BME280;68167;59.120;37.898;2023-10-31T07:42:01;99778.91;;;0.94;80.89
71697;BME280;68167;59.120;37.898;2023-10-31T07:44:27;99755.94;;;0.96;80.28
71697;BME280;68167;59.120;37.898;2023-10-31T07:46:54;99784.22;;;1.14;80.09
71697;BME280;68167;59.120;37.898;2023-10-31T07:49:20;99785.03;;;1.14;80.08
71697;BME280;68167;59.120;37.898;2023-10-31T07:51:47;99766.66;;;1.08;79.85
71697;BME280;68167;59.120;37.898;2023-10-31T07:54:14;99808.09;;;1.39;79.84
71697;BME280;68167;59.120;37.898;2023-10-31T07:56:42;99807.91;;;1.40;79.81
71697;BME280;68167;59.120;37.898;2023-10-31T07:59:08;99761.03;;;1.11;79.89
71697;BME280;68167;59.120;37.898;2023-10-31T08:01:35;99771.13;;;1.14;80.22
71697;BME280;68167;59.120;37.898;2023-10-31T08:04:01;99774.56;;;1.14;79.48
71697;BME280;68167;59.120;37.898;2023-10-31T08:06:27;99803.47;;;1.41;79.47
71697;BME280;68167;59.120;37.898;2023-10-31T08:08:54;99815.81;;;1.53;79.59
71697;BME280;68167;59.120;37.898;2023-10-31T08:11:20;99801.06;;;1.46;78.86
71697;BME280;68167;59.120;37.898;2023-10-31T08:13:47;99767.69;;;1.13;79.21
71697;BME280;68167;59.120;37.898;2023-10-31T08:16:18;99779.22;;;1.19;79.14
71697;BME280;68167;59.120;37.898;2023-10-31T08:18:48;99822.63;;;1.41;79.17
71697;BME280;68167;59.120;37.898;2023-10-31T08:21:14;99805.25;;;1.27;79.17
71697;BME280;68167;59.120;37.898;2023-10-31T08:23:41;99794.94;;;1.19;79.31
71697;BME280;68167;59.120;37.898;2023-10-31T08:26:10;99835.56;;;1.43;79.25
71697;BME280;68167;59.120;37.898;2023-10-31T08:28:36;99834.97;;;1.47;79.33
71697;BME280;68167;59.120;37.898;2023-10-31T08:31:03;99834.56;;;1.50;79.69
71697;BME280;68167;59.120;37.898;2023-10-31T08:33:30;99849.75;;;1.61;79.37
71697;BME280;68167;59.120;37.898;2023-10-31T08:35:56;99768.50;;;1.14;79.48
71697;BME280;68167;59.120;37.898;2023-10-31T08:38:22;99799.44;;;1.38;79.09
71697;BME280;68167;59.120;37.898;2023-10-31T08:40:49;99861.91;;;1.76;79.46
71697;BME280;68167;59.120;37.898;2023-10-31T08:43:15;99861.13;;;1.82;79.33
71697;BME280;68167;59.120;37.898;2023-10-31T08:45:41;99839.31;;;1.81;79.52
71697;BME280;68167;59.120;37.898;2023-10-31T08:48:07;99836.50;;;1.89;79.47
71697;BME280;68167;59.120;37.898;2023-10-31T08:50:34;99845.41;;;2.08;79.17
71697;BME280;68167;59.120;37.898;2023-10-31T08:53:00;99806.44;;;1.85;79.09
71697;BME280;68167;59.120;37.898;2023-10-31T08:55:26;99807.44;;;1.84;79.01
71697;BME280;68167;59.120;37.898;2023-10-31T08:57:53;99798.53;;;1.79;78.66
71697;BME280;68167;59.120;37.898;2023-10-31T09:00:19;99844.78;;;1.99;79.05
71697;BME280;68167;59.120;37.898;2023-10-31T09:02:46;99858.53;;;2.08;78.94
71697;BME280;68167;59.120;37.898;2023-10-31T09:05:12;99864.59;;;2.09;78.76
71697;BME280;68167;59.120;37.898;2023-10-31T09:07:38;99846.22;;;2.09;78.92
71697;BME280;68167;59.120;37.898;2023-10-31T09:10:05;99867.03;;;2.30;78.66
71697;BME280;68167;59.120;37.898;2023-10-31T09:12:31;99884.63;;;2.36;78.57
71697;BME280;68167;59.120;37.898;2023-10-31T09:15:00;99866.63;;;2.26;77.94
71697;BME280;68167;59.120;37.898;2023-10-31T09:17:28;99860.97;;;2.23;78.50
71697;BME280;68167;59.120;37.898;2023-10-31T09:19:55;99794.91;;;1.80;78.32
71697;BME280;68167;59.120;37.898;2023-10-31T09:22:21;99885.63;;;2.35;78.42
71697;BME280;68167;59.120;37.898;2023-10-31T09:24:47;99857.75;;;2.34;79.22
71697;BME280;68167;59.120;37.898;2023-10-31T09:27:14;99864.44;;;2.43;78.82
71697;BME280;68167;59.120;37.898;2023-10-31T09:29:40;99832.72;;;2.31;78.61
71697;BME280;68167;59.120;37.898;2023-10-31T09:32:07;99850.09;;;2.52;78.58
71697;BME280;68167;59.120;37.898;2023-10-31T09:34:33;99836.16;;;2.52;77.95
71697;BME280;68167;59.120;37.898;2023-10-31T09:36:59;99817.97;;;2.50;78.32
71697;BME280;68167;59.120;37.898;2023-10-31T09:39:25;99795.13;;;2.44;78.11
71697;BME280;68167;59.120;37.898;2023-10-31T09:41:54;99823.78;;;2.65;77.85
71697;BME280;68167;59.120;37.898;2023-10-31T09:44:20;99850.22;;;2.90;77.83
71697;BME280;68167;59.120;37.898;2023-10-31T09:46:47;99814.88;;;2.73;77.66
71697;BME280;68167;59.120;37.898;2023-10-31T09:49:14;99819.94;;;2.75;77.40
71697;BME280;68167;59.120;37.898;2023-10-31T09:51:41;99814.66;;;2.75;77.47
71697;BME280;68167;59.120;37.898;2023-10-31T09:54:08;99773.28;;;2.57;77.17
71697;BME280;68167;59.120;37.898;2023-10-31T09:56:35;99853.03;;;3.15;76.86
71697;BME280;68167;59.120;37.898;2023-10-31T09:59:02;99838.06;;;3.09;76.64
71697;BME280;68167;59.120;37.898;2023-10-31T10:01:31;99825.75;;;3.03;76.62
71697;BME280;68167;59.120;37.898;2023-10-31T10:03:57;99812.41;;;2.98;76.83
71697;BME280;68167;59.120;37.898;2023-10-31T10:06:25;99762.34;;;2.67;76.86
71697;BME280;68167;59.120;37.898;2023-10-31T10:08:51;99823.94;;;2.97;76.99
71697;BME280;68167;59.120;37.898;2023-10-31T10:11:17;99810.03;;;2.70;76.76
71697;BME280;68167;59.120;37.898;2023-10-31T10:13:44;99839.34;;;2.74;76.57
71697;BME280;68167;59.120;37.898;2023-10-31T10:16:11;99776.34;;;2.27;76.47
71697;BME280;68167;59.120;37.898;2023-10-31T10:18:37;99863.00;;;2.60;76.66
71697;BME280;68167;59.120;37.898;2023-10-31T10:21:06;99867.25;;;2.61;77.29
71697;BME280;68167;59.120;37.898;2023-10-31T10:23:33;99808.47;;;2.23;76.60
71697;BME280;68167;59.120;37.898;2023-10-31T10:26:01;99854.34;;;2.47;77.17
71697;BME280;68167;59.120;37.898;2023-10-31T10:28:28;99852.31;;;2.42;77.33
71697;BME280;68167;59.120;37.898;2023-10-31T10:30:59;99853.31;;;2.48;77.56
71697;BME280;68167;59.120;37.898;2023-10-31T10:33:25;99867.88;;;2.57;77.62
71697;BME280;68167;59.120;37.898;2023-10-31T10:35:52;99843.81;;;2.47;77.19
71697;BME280;68167;59.120;37.898;2023-10-31T10:38:21;99809.88;;;2.19;77.53
71697;BME280;68167;59.120;37.898;2023-10-31T10:40:48;99864.84;;;2.53;77.66
71697;BME280;68167;59.120;37.898;2023-10-31T10:43:25;99801.59;;;2.28;77.50
71697;BME280;68167;59.120;37.898;2023-10-31T10:45:57;99871.88;;;2.86;77.86
71697;BME280;68167;59.120;37.898;2023-10-31T10:48:25;99850.03;;;2.79;77.60
71697;BME280;68167;59.120;37.898;2023-10-31T10:51:21;99877.34;;;2.91;77.55
71697;BME280;68167;59.120;37.898;2023-10-31T10:54:00;99813.72;;;2.36;77.34
71697;BME280;68167;59.120;37.898;2023-10-31T10:56:38;99883.00;;;2.81;77.63
71697;BME280;68167;59.120;37.898;2023-10-31T10:59:20;99877.94;;;2.80;77.64
71697;BME280;68167;59.120;37.898;2023-10-31T11:01:47;99813.31;;;2.33;77.33
71697;BME280;68167;59.120;37.898;2023-10-31T11:04:15;99892.91;;;2.79;77.53
71697;BME280;68167;59.120;37.898;2023-10-31T11:06:44;99896.13;;;2.94;77.92
71697;BME280;68167;59.120;37.898;2023-10-31T11:09:13;99888.25;;;2.94;77.54
71697;BME280;68167;59.120;37.898;2023-10-31T11:11:40;99853.69;;;2.64;77.49
71697;BME280;68167;59.120;37.898;2023-10-31T11:14:07;99897.75;;;2.82;77.94
71697;BME280;68167;59.120;37.898;2023-10-31T11:17:01;99911.50;;;2.78;77.44
71697;BME280;68167;59.120;37.898;2023-10-31T11:19:32;99895.56;;;2.59;77.63
71697;BME280;68167;59.120;37.898;2023-10-31T11:22:01;99896.78;;;2.57;77.06
71697;BME280;68167;59.120;37.898;2023-10-31T11:24:37;99850.66;;;2.15;76.97
71697;BME280;68167;59.120;37.898;2023-10-31T11:27:07;99839.75;;;2.05;76.98
71697;BME280;68167;59.120;37.898;2023-10-31T11:29:36;99848.03;;;2.08;77.19
71697;BME280;68167;59.120;37.898;2023-10-31T11:32:02;99874.72;;;2.25;77.38
71697;BME280;68167;59.120;37.898;2023-10-31T11:34:30;99876.13;;;2.34;77.59
71697;BME280;68167;59.120;37.898;2023-10-31T11:40:15;99894.56;;;2.54;78.11
71697;BME280;68167;59.120;37.898;2023-10-31T11:42:42;99886.06;;;2.45;77.94
71697;BME280;68167;59.120;37.898;2023-10-31T11:45:08;99856.94;;;2.27;77.99
71697;BME280;68167;59.120;37.898;2023-10-31T11:47:48;99859.97;;;2.37;77.70
71697;BME280;68167;59.120;37.898;2023-10-31T11:50:15;99851.69;;;2.27;77.36
71697;BME280;68167;59.120;37.898;2023-10-31T11:52:42;99870.69;;;2.36;77.55
71697;BME280;68167;59.120;37.898;2023-10-31T11:55:12;99850.88;;;2.13;77.63
71697;BME280;68167;59.120;37.898;2023-10-31T11:57:39;99873.88;;;2.05;77.24
71697;BME280;68167;59.120;37.898;2023-10-31T12:00:06;99857.72;;;1.88;77.11
71697;BME280;68167;59.120;37.898;2023-10-31T12:02:39;99879.31;;;1.90;77.54
71697;BME280;68167;59.120;37.898;2023-10-31T12:05:12;99918.72;;;2.10;77.58
71697;BME280;68167;59.120;37.898;2023-10-31T12:07:43;99913.84;;;2.00;77.77
71697;BME280;68167;59.120;37.898;2023-10-31T12:10:10;99946.97;;;2.08;77.28
71697;BME280;68167;59.120;37.898;2023-10-31T12:12:36;99946.94;;;2.01;77.84
71697;BME280;68167;59.120;37.898;2023-10-31T12:15:09;99942.72;;;2.07;77.43
71697;BME280;68167;59.120;37.898;2023-10-31T12:17:36;99932.22;;;2.00;77.13
71697;BME280;68167;59.120;37.898;2023-10-31T12:20:07;99895.78;;;1.71;77.53
71697;BME280;68167;59.120;37.898;2023-10-31T12:22:34;99931.75;;;1.77;76.99
71697;BME280;68167;59.120;37.898;2023-10-31T12:25:02;99910.06;;;1.55;77.68
71697;BME280;68167;59.120;37.898;2023-10-31T12:27:50;99904.09;;;1.33;77.28
71697;BME280;68167;59.120;37.898;2023-10-31T12:30:19;99929.72;;;1.38;77.58
71697;BME280;68167;59.120;37.898;2023-10-31T12:32:53;99928.28;;;1.35;78.32
71697;BME280;68167;59.120;37.898;2023-10-31T12:35:22;99951.50;;;1.38;77.87
71697;BME280;68167;59.120;37.898;2023-10-31T12:37:49;99941.03;;;1.38;78.09
71697;BME280;68167;59.120;37.898;2023-10-31T12:40:20;99949.31;;;1.42;78.81
71697;BME280;68167;59.120;37.898;2023-10-31T12:42:48;99925.06;;;1.26;78.48
71697;BME280;68167;59.120;37.898;2023-10-31T12:45:15;99886.75;;;0.97;78.28
71697;BME280;68167;59.120;37.898;2023-10-31T12:47:43;99924.78;;;1.15;78.11
71697;BME280;68167;59.120;37.898;2023-10-31T12:50:13;99894.19;;;0.94;78.16
71697;BME280;68167;59.120;37.898;2023-10-31T12:52:47;99902.72;;;1.03;78.84
71697;BME280;68167;59.120;37.898;2023-10-31T12:55:15;99910.56;;;1.03;78.59
71697;BME280;68167;59.120;37.898;2023-10-31T12:57:42;99913.78;;;0.98;78.58
71697;BME280;68167;59.120;37.898;2023-10-31T13:00:17;99936.97;;;1.01;78.29
71697;BME280;68167;59.120;37.898;2023-10-31T13:02:51;99908.19;;;0.80;79.24